sensor_id;sensor_type;location;lat;lon;timestamp;pressure;altitude;pressure_sealevel;temperature;humidity
40075;BME280;26529;51.530;11.754;2023-02-15T00:01:39;101513.75;;;19.64;43.42
40075;BME280;26529;51.530;11.754;2023-02-15T00:04:06;101520.84;;;19.63;43.76
40075;BME280;26529;51.530;11.754;2023-02-15T00:06:32;101520.00;;;19.63;43.67
40075;BME280;26529;51.530;11.754;2023-02-15T00:08:58;101515.53;;;19.63;43.85
40075;BME280;26529;51.530;11.754;2023-02-15T00:11:24;101512.97;;;19.62;43.80
40075;BME280;26529;51.530;11.754;2023-02-15T00:14:19;101515.53;;;19.63;43.70
40075;BME280;26529;51.530;11.754;2023-02-15T00:16:46;101515.69;;;19.60;43.66
40075;BME280;26529;51.530;11.754;2023-02-15T00:19:13;101511.19;;;19.61;43.59
40075;BME280;26529;51.530;11.754;2023-02-15T00:21:39;101508.63;;;19.59;43.66
40075;BME280;26529;51.530;11.754;2023-02-15T00:24:07;101505.88;;;19.61;43.52
40075;BME280;26529;51.530;11.754;2023-02-15T00:26:33;101500.72;;;19.58;43.69
40075;BME280;26529;51.530;11.754;2023-02-15T00:28:59;101501.66;;;19.57;44.02
40075;BME280;26529;51.530;11.754;2023-02-15T00:31:27;101503.38;;;19.58;43.75
40075;BME280;26529;51.530;11.754;2023-02-15T00:33:53;101504.16;;;19.60;43.70
40075;BME280;26529;51.530;11.754;2023-02-15T00:36:18;101504.25;;;19.58;43.60
40075;BME280;26529;51.530;11.754;2023-02-15T00:38:43;101504.31;;;19.57;43.79
40075;BME280;26529;51.530;11.754;2023-02-15T00:41:09;101505.25;;;19.56;43.77
40075;BME280;26529;51.530;11.754;2023-02-15T00:43:35;101501.66;;;19.57;43.81
40075;BME280;26529;51.530;11.754;2023-02-15T00:46:02;101499.84;;;19.57;43.88
40075;BME280;26529;51.530;11.754;2023-02-15T00:48:28;101491.94;;;19.56;43.81
40075;BME280;26529;51.530;11.754;2023-02-15T00:50:56;101503.50;;;19.55;43.63
40075;BME280;26529;51.530;11.754;2023-02-15T00:53:23;101502.59;;;19.56;43.69
40075;BME280;26529;51.530;11.754;2023-02-15T00:55:49;101505.38;;;19.52;43.70
40075;BME280;26529;51.530;11.754;2023-02-15T00:58:15;101503.59;;;19.53;43.85
40075;BME280;26529;51.530;11.754;2023-02-15T01:00:43;101501.00;;;19.51;43.91
40075;BME280;26529;51.530;11.754;2023-02-15T01:03:09;101505.38;;;19.52;43.82
40075;BME280;26529;51.530;11.754;2023-02-15T01:05:35;101498.28;;;19.53;43.63
40075;BME280;26529;51.530;11.754;2023-02-15T01:08:03;101503.66;;;19.51;43.76
40075;BME280;26529;51.530;11.754;2023-02-15T01:10:29;101498.28;;;19.53;43.80
40075;BME280;26529;51.530;11.754;2023-02-15T01:12:55;101494.88;;;19.49;43.59
40075;BME280;26529;51.530;11.754;2023-02-15T01:15:22;101504.59;;;19.50;43.84
40075;BME280;26529;51.530;11.754;2023-02-15T01:17:48;101493.06;;;19.50;43.66
40075;BME280;26529;51.530;11.754;2023-02-15T01:20:19;101497.56;;;19.49;43.79
40075;BME280;26529;51.530;11.754;2023-02-15T01:22:44;101492.22;;;19.49;43.86
40075;BME280;26529;51.530;11.754;2023-02-15T01:25:10;101486.09;;;19.47;43.85
40075;BME280;26529;51.530;11.754;2023-02-15T01:27:35;101478.13;;;19.47;43.75
40075;BME280;26529;51.530;11.754;2023-02-15T01:30:01;101478.13;;;19.47;43.78
40075;BME280;26529;51.530;11.754;2023-02-15T01:32:26;101477.22;;;19.48;43.81
40075;BME280;26529;51.530;11.754;2023-02-15T01:34:52;101478.13;;;19.47;43.80
40075;BME280;26529;51.530;11.754;2023-02-15T01:37:18;101468.47;;;19.45;43.85
40075;BME280;26529;51.530;11.754;2023-02-15T01:39:44;101466.63;;;19.47;43.70
40075;BME280;26529;51.530;11.754;2023-02-15T01:42:10;101462.31;;;19.44;43.70
40075;BME280;26529;51.530;11.754;2023-02-15T01:47:10;101457.00;;;19.44;43.83
40075;BME280;26529;51.530;11.754;2023-02-15T01:49:38;101452.53;;;19.45;43.75
40075;BME280;26529;51.530;11.754;2023-02-15T01:52:08;101449.06;;;19.43;43.74
40075;BME280;26529;51.530;11.754;2023-02-15T01:54:36;101442.03;;;19.42;43.93
40075;BME280;26529;51.530;11.754;2023-02-15T01:57:13;101441.16;;;19.41;43.71
40075;BME280;26529;51.530;11.754;2023-02-15T01:59:43;101439.44;;;19.40;43.71
40075;BME280;26529;51.530;11.754;2023-02-15T02:02:13;101438.38;;;19.44;43.78
40075;BME280;26529;51.530;11.754;2023-02-15T02:04:43;101435.84;;;19.41;43.84
40075;BME280;26529;51.530;11.754;2023-02-15T02:07:12;101436.72;;;19.42;43.80
40075;BME280;26529;51.530;11.754;2023-02-15T02:09:40;101432.41;;;19.39;43.75
40075;BME280;26529;51.530;11.754;2023-02-15T02:12:06;101437.66;;;19.41;43.79
40075;BME280;26529;51.530;11.754;2023-02-15T02:14:32;101432.41;;;19.39;43.71
40075;BME280;26529;51.530;11.754;2023-02-15T02:17:07;101434.22;;;19.38;43.64
40075;BME280;26529;51.530;11.754;2023-02-15T02:20:33;101443.03;;;19.39;43.71
40075;BME280;26529;51.530;11.754;2023-02-15T02:34:16;101430.69;;;19.38;43.91
40075;BME280;26529;51.530;11.754;2023-02-15T02:40:08;101423.63;;;19.37;43.86
40075;BME280;26529;51.530;11.754;2023-02-15T02:42:40;101419.31;;;19.34;43.91
40075;BME280;26529;51.530;11.754;2023-02-15T02:45:16;101421.09;;;19.34;43.92
40075;BME280;26529;51.530;11.754;2023-02-15T02:47:48;101413.13;;;19.34;43.66
40075;BME280;26529;51.530;11.754;2023-02-15T02:50:21;101406.09;;;19.33;43.83
40075;BME280;26529;51.530;11.754;2023-02-15T02:52:49;101410.41;;;19.35;43.88
40075;BME280;26529;51.530;11.754;2023-02-15T02:55:19;101408.75;;;19.33;43.81
40075;BME280;26529;51.530;11.754;2023-02-15T03:00:25;101409.69;;;19.32;43.94
40075;BME280;26529;51.530;11.754;2023-02-15T03:02:59;101412.28;;;19.33;43.62
40075;BME280;26529;51.530;11.754;2023-02-15T03:05:30;101414.13;;;19.31;43.82
40075;BME280;26529;51.530;11.754;2023-02-15T03:07:58;101415.88;;;19.32;43.73
40075;BME280;26529;51.530;11.754;2023-02-15T03:10:33;101410.56;;;19.32;43.79
40075;BME280;26529;51.530;11.754;2023-02-15T03:13:00;101402.66;;;19.31;43.69
40075;BME280;26529;51.530;11.754;2023-02-15T03:15:30;101404.53;;;19.29;43.87
40075;BME280;26529;51.530;11.754;2023-02-15T03:18:21;101399.19;;;19.29;43.70
40075;BME280;26529;51.530;11.754;2023-02-15T03:20:48;101400.94;;;19.30;43.51
40075;BME280;26529;51.530;11.754;2023-02-15T03:23:22;101398.38;;;19.27;43.79
40075;BME280;26529;51.530;11.754;2023-02-15T03:25:52;101401.88;;;19.29;43.89
40075;BME280;26529;51.530;11.754;2023-02-15T03:28:30;101401.06;;;19.27;43.90
40075;BME280;26529;51.530;11.754;2023-02-15T03:31:00;101397.53;;;19.26;43.61
40075;BME280;26529;51.530;11.754;2023-02-15T03:33:27;101397.44;;;19.28;43.74
40075;BME280;26529;51.530;11.754;2023-02-15T03:36:04;101384.25;;;19.26;43.64
40075;BME280;26529;51.530;11.754;2023-02-15T03:38:42;101385.09;;;19.27;43.79
40075;BME280;26529;51.530;11.754;2023-02-15T03:41:11;101382.53;;;19.25;43.76
40075;BME280;26529;51.530;11.754;2023-02-15T03:48:53;101380.78;;;19.24;43.77
40075;BME280;26529;51.530;11.754;2023-02-15T03:51:26;101375.56;;;19.22;43.66
40075;BME280;26529;51.530;11.754;2023-02-15T03:54:02;101378.13;;;19.24;43.75
40075;BME280;26529;51.530;11.754;2023-02-15T03:56:28;101379.06;;;19.23;43.91
40075;BME280;26529;51.530;11.754;2023-02-15T03:58:54;101385.25;;;19.23;43.83
40075;BME280;26529;51.530;11.754;2023-02-15T04:02:33;101390.56;;;19.23;43.79
40075;BME280;26529;51.530;11.754;2023-02-15T04:04:39;101390.56;;;19.23;43.78
40075;BME280;26529;51.530;11.754;2023-02-15T04:07:07;101386.19;;;19.22;43.85
40075;BME280;26529;51.530;11.754;2023-02-15T04:09:33;101380.06;;;19.20;43.81
40075;BME280;26529;51.530;11.754;2023-02-15T04:12:17;101375.63;;;19.21;43.76
40075;BME280;26529;51.530;11.754;2023-02-15T04:14:42;101385.38;;;19.20;43.85
40075;BME280;26529;51.530;11.754;2023-02-15T04:17:26;101384.47;;;19.21;43.87
40075;BME280;26529;51.530;11.754;2023-02-15T04:19:52;101380.06;;;19.20;43.73
40075;BME280;26529;51.530;11.754;2023-02-15T04:22:36;101381.00;;;19.19;43.87
40075;BME280;26529;51.530;11.754;2023-02-15T04:25:20;101372.09;;;19.20;43.73
40075;BME280;26529;51.530;11.754;2023-02-15T04:27:49;101372.09;;;19.20;43.76
40075;BME280;26529;51.530;11.754;2023-02-15T04:30:16;101373.91;;;19.20;43.74
40075;BME280;26529;51.530;11.754;2023-02-15T04:32:43;101367.69;;;19.19;43.77
40075;BME280;26529;51.530;11.754;2023-02-15T04:35:08;101371.25;;;19.20;43.74
40075;BME280;26529;51.530;11.754;2023-02-15T04:37:34;101371.31;;;19.18;43.73
40075;BME280;26529;51.530;11.754;2023-02-15T04:40:00;101364.25;;;19.17;43.74
40075;BME280;26529;51.530;11.754;2023-02-15T04:42:26;101362.53;;;19.16;43.75
40075;BME280;26529;51.530;11.754;2023-02-15T04:44:53;101362.53;;;19.16;43.79
40075;BME280;26529;51.530;11.754;2023-02-15T04:47:19;101357.22;;;19.16;43.83
40075;BME280;26529;51.530;11.754;2023-02-15T04:49:45;101351.91;;;19.16;43.74
40075;BME280;26529;51.530;11.754;2023-02-15T04:52:10;101355.50;;;19.15;43.72
40075;BME280;26529;51.530;11.754;2023-02-15T04:54:36;101350.19;;;19.15;43.90
40075;BME280;26529;51.530;11.754;2023-02-15T04:57:01;101351.09;;;19.14;43.80
40075;BME280;26529;51.530;11.754;2023-02-15T04:59:27;101344.88;;;19.15;43.73
40075;BME280;26529;51.530;11.754;2023-02-15T05:01:52;101344.88;;;19.15;43.78
40075;BME280;26529;51.530;11.754;2023-02-15T05:04:18;101357.34;;;19.13;43.97
40075;BME280;26529;51.530;11.754;2023-02-15T05:06:44;101347.59;;;19.14;43.63
40075;BME280;26529;51.530;11.754;2023-02-15T05:09:11;101348.44;;;19.14;43.57
40075;BME280;26529;51.530;11.754;2023-02-15T05:11:36;101344.94;;;19.14;43.89
40075;BME280;26529;51.530;11.754;2023-02-15T05:14:02;101344.94;;;19.14;43.53
40075;BME280;26529;51.530;11.754;2023-02-15T05:16:28;101340.56;;;19.13;43.65
40075;BME280;26529;51.530;11.754;2023-02-15T05:18:53;101337.03;;;19.12;43.77
40075;BME280;26529;51.530;11.754;2023-02-15T05:21:19;101334.38;;;19.12;43.74
40075;BME280;26529;51.530;11.754;2023-02-15T05:23:44;101327.31;;;19.11;43.73
40075;BME280;26529;51.530;11.754;2023-02-15T05:26:11;101327.31;;;19.11;43.74
40075;BME280;26529;51.530;11.754;2023-02-15T05:28:55;101326.44;;;19.10;43.74
40075;BME280;26529;51.530;11.754;2023-02-15T05:31:21;101326.44;;;19.10;44.00
40075;BME280;26529;51.530;11.754;2023-02-15T05:33:47;101324.66;;;19.11;43.84
40075;BME280;26529;51.530;11.754;2023-02-15T05:36:12;101328.28;;;19.10;43.62
40075;BME280;26529;51.530;11.754;2023-02-15T05:38:38;101324.66;;;19.11;43.73
40075;BME280;26529;51.530;11.754;2023-02-15T05:41:05;101318.56;;;19.09;43.69
40075;BME280;26529;51.530;11.754;2023-02-15T05:43:31;101316.75;;;19.09;43.87
40075;BME280;26529;51.530;11.754;2023-02-15T05:45:57;101309.66;;;19.10;43.82
40075;BME280;26529;51.530;11.754;2023-02-15T05:48:25;101318.56;;;19.09;43.82
40075;BME280;26529;51.530;11.754;2023-02-15T05:50:58;101322.00;;;19.11;43.68
40075;BME280;26529;51.530;11.754;2023-02-15T05:53:25;101326.53;;;19.09;43.79
40075;BME280;26529;51.530;11.754;2023-02-15T05:55:50;101331.88;;;19.09;43.86
40075;BME280;26529;51.530;11.754;2023-02-15T05:58:16;101333.66;;;19.08;43.68
40075;BME280;26529;51.530;11.754;2023-02-15T06:00:41;101335.47;;;19.08;43.93
40075;BME280;26529;51.530;11.754;2023-02-15T06:03:07;101338.13;;;19.08;43.84
40075;BME280;26529;51.530;11.754;2023-02-15T06:05:32;101337.25;;;19.07;43.63
40075;BME280;26529;51.530;11.754;2023-02-15T06:07:58;101327.47;;;19.08;43.76
40075;BME280;26529;51.530;11.754;2023-02-15T06:10:23;101329.53;;;19.20;43.73
40075;BME280;26529;51.530;11.754;2023-02-15T06:12:49;101330.91;;;19.29;43.58
40075;BME280;26529;51.530;11.754;2023-02-15T06:15:14;101329.78;;;19.35;43.36
40075;BME280;26529;51.530;11.754;2023-02-15T06:17:41;101330.56;;;19.37;43.46
40075;BME280;26529;51.530;11.754;2023-02-15T06:20:08;101333.06;;;19.40;43.36
40075;BME280;26529;51.530;11.754;2023-02-15T06:22:34;101335.66;;;19.42;43.31
40075;BME280;26529;51.530;11.754;2023-02-15T06:24:59;101336.53;;;19.42;43.50
40075;BME280;26529;51.530;11.754;2023-02-15T06:27:25;101335.50;;;19.45;43.39
40075;BME280;26529;51.530;11.754;2023-02-15T06:29:50;101327.44;;;19.46;43.39
40075;BME280;26529;51.530;11.754;2023-02-15T06:32:15;101330.09;;;19.46;43.42
40075;BME280;26529;51.530;11.754;2023-02-15T06:34:41;101327.38;;;19.48;43.41
40075;BME280;26529;51.530;11.754;2023-02-15T06:37:07;101331.81;;;19.47;43.46
40075;BME280;26529;51.530;11.754;2023-02-15T06:39:33;101326.00;;;19.39;43.63
40075;BME280;26529;51.530;11.754;2023-02-15T06:41:59;101330.97;;;19.28;44.03
40075;BME280;26529;51.530;11.754;2023-02-15T06:44:24;101323.16;;;19.24;44.00
40075;BME280;26529;51.530;11.754;2023-02-15T06:46:50;101325.03;;;19.22;44.04
40075;BME280;26529;51.530;11.754;2023-02-15T06:49:15;101326.03;;;19.20;43.87
40075;BME280;26529;51.530;11.754;2023-02-15T06:51:41;101324.31;;;19.19;43.99
40075;BME280;26529;51.530;11.754;2023-02-15T06:54:06;101326.09;;;19.18;44.02
40075;BME280;26529;51.530;11.754;2023-02-15T06:56:32;101327.97;;;19.16;43.91
40075;BME280;26529;51.530;11.754;2023-02-15T06:58:57;101323.59;;;19.15;44.00
40075;BME280;26529;51.530;11.754;2023-02-15T07:01:23;101312.97;;;19.15;43.93
40075;BME280;26529;51.530;11.754;2023-02-15T07:03:49;101320.13;;;19.13;44.05
40075;BME280;26529;51.530;11.754;2023-02-15T07:06:14;101307.78;;;19.12;43.97
40075;BME280;26529;51.530;11.754;2023-02-15T07:08:40;101311.38;;;19.11;43.83
40075;BME280;26529;51.530;11.754;2023-02-15T07:11:06;101313.97;;;19.13;43.92
40075;BME280;26529;51.530;11.754;2023-02-15T07:13:50;101316.69;;;19.11;43.87
40075;BME280;26529;51.530;11.754;2023-02-15T07:16:18;101312.16;;;19.13;43.91
40075;BME280;26529;51.530;11.754;2023-02-15T07:18:43;101307.66;;;19.15;43.76
40075;BME280;26529;51.530;11.754;2023-02-15T07:21:09;101305.78;;;19.17;43.80
40075;BME280;26529;51.530;11.754;2023-02-15T07:23:38;101302.19;;;19.18;43.74
40075;BME280;26529;51.530;11.754;2023-02-15T07:26:05;101299.53;;;19.18;43.70
40075;BME280;26529;51.530;11.754;2023-02-15T07:28:32;101293.41;;;19.16;43.52
40075;BME280;26529;51.530;11.754;2023-02-15T07:30:58;101292.72;;;19.13;43.84
40075;BME280;26529;51.530;11.754;2023-02-15T07:33:25;101291.84;;;19.12;43.80
40075;BME280;26529;51.530;11.754;2023-02-15T07:35:54;101294.50;;;19.12;43.94
40075;BME280;26529;51.530;11.754;2023-02-15T07:38:21;101283.78;;;19.14;43.79
40075;BME280;26529;51.530;11.754;2023-02-15T07:40:47;101272.28;;;19.13;43.72
40075;BME280;26529;51.530;11.754;2023-02-15T07:43:13;101279.47;;;19.11;43.90
40075;BME280;26529;51.530;11.754;2023-02-15T07:45:39;101279.47;;;19.11;43.85
40075;BME280;26529;51.530;11.754;2023-02-15T07:48:05;101274.16;;;19.11;43.79
40075;BME280;26529;51.530;11.754;2023-02-15T07:50:31;101273.28;;;19.10;43.84
40075;BME280;26529;51.530;11.754;2023-02-15T07:52:57;101278.69;;;19.09;43.81
40075;BME280;26529;51.530;11.754;2023-02-15T07:55:23;101274.94;;;19.13;43.72
40075;BME280;26529;51.530;11.754;2023-02-15T07:57:50;101273.88;;;19.17;43.70
40075;BME280;26529;51.530;11.754;2023-02-15T08:00:18;101280.03;;;19.18;43.70
40075;BME280;26529;51.530;11.754;2023-02-15T08:02:49;101267.78;;;19.15;43.70
40075;BME280;26529;51.530;11.754;2023-02-15T08:05:35;101272.22;;;19.15;43.75
40075;BME280;26529;51.530;11.754;2023-02-15T08:08:01;101272.28;;;19.13;43.77
40075;BME280;26529;51.530;11.754;2023-02-15T08:10:26;101266.03;;;19.14;43.86
40075;BME280;26529;51.530;11.754;2023-02-15T08:13:11;101262.53;;;19.14;43.77
40075;BME280;26529;51.530;11.754;2023-02-15T08:15:37;101271.34;;;19.14;43.86
40075;BME280;26529;51.530;11.754;2023-02-15T08:18:02;101275.75;;;19.15;43.77
40075;BME280;26529;51.530;11.754;2023-02-15T08:20:28;101273.09;;;19.15;43.63
40075;BME280;26529;51.530;11.754;2023-02-15T08:22:53;101262.34;;;19.17;43.64
40075;BME280;26529;51.530;11.754;2023-02-15T08:25:19;101266.69;;;19.19;43.58
40075;BME280;26529;51.530;11.754;2023-02-15T08:27:44;101257.84;;;19.19;43.71
40075;BME280;26529;51.530;11.754;2023-02-15T08:30:10;101256.03;;;19.19;43.70
40075;BME280;26529;51.530;11.754;2023-02-15T08:32:36;101249.59;;;19.25;43.54
40075;BME280;26529;51.530;11.754;2023-02-15T08:35:02;101253.56;;;19.34;43.35
40075;BME280;26529;51.530;11.754;2023-02-15T08:37:27;101260.47;;;19.38;43.26
40075;BME280;26529;51.530;11.754;2023-02-15T08:39:53;101259.69;;;19.36;43.57
40075;BME280;26529;51.530;11.754;2023-02-15T08:42:18;101253.56;;;19.34;43.42
40075;BME280;26529;51.530;11.754;2023-02-15T08:44:46;101255.44;;;19.32;43.57
40075;BME280;26529;51.530;11.754;2023-02-15T08:47:11;101258.19;;;19.30;43.61
40075;BME280;26529;51.530;11.754;2023-02-15T08:49:37;101262.66;;;19.30;43.54
40075;BME280;26529;51.530;11.754;2023-02-15T08:52:02;101261.78;;;19.29;43.70
40075;BME280;26529;51.530;11.754;2023-02-15T08:54:28;101253.78;;;19.29;43.72
40075;BME280;26529;51.530;11.754;2023-02-15T08:56:53;101250.19;;;19.30;43.56
40075;BME280;26529;51.530;11.754;2023-02-15T08:59:21;101249.34;;;19.30;43.68
40075;BME280;26529;51.530;11.754;2023-02-15T09:01:49;101248.41;;;19.31;43.64
40075;BME280;26529;51.530;11.754;2023-02-15T09:04:15;101248.25;;;19.34;43.60
40075;BME280;26529;51.530;11.754;2023-02-15T09:06:42;101248.97;;;19.37;43.48
40075;BME280;26529;51.530;11.754;2023-02-15T09:09:10;101247.19;;;19.38;43.37
40075;BME280;26529;51.530;11.754;2023-02-15T09:11:39;101233.81;;;19.39;43.53
40075;BME280;26529;51.530;11.754;2023-02-15T09:14:08;101239.03;;;19.41;43.42
40075;BME280;26529;51.530;11.754;2023-02-15T09:16:36;101238.91;;;19.44;43.50
40075;BME280;26529;51.530;11.754;2023-02-15T09:19:03;101237.00;;;19.46;43.48
40075;BME280;26529;51.530;11.754;2023-02-15T09:21:34;101240.47;;;19.48;43.39
40075;BME280;26529;51.530;11.754;2023-02-15T09:24:03;101240.47;;;19.48;43.29
40075;BME280;26529;51.530;11.754;2023-02-15T09:26:31;101235.00;;;19.51;43.34
40075;BME280;26529;51.530;11.754;2023-02-15T09:28:58;101230.53;;;19.52;43.10
40075;BME280;26529;51.530;11.754;2023-02-15T09:31:28;101233.09;;;19.53;43.28
40075;BME280;26529;51.530;11.754;2023-02-15T09:33:54;101238.28;;;19.57;43.21
40075;BME280;26529;51.530;11.754;2023-02-15T09:36:23;101244.38;;;19.59;43.17
40075;BME280;26529;51.530;11.754;2023-02-15T09:39:18;101247.03;;;19.59;43.13
40075;BME280;26529;51.530;11.754;2023-02-15T09:44:51;101250.34;;;19.64;43.26
40075;BME280;26529;51.530;11.754;2023-02-15T09:47:43;101249.41;;;19.65;43.06
40075;BME280;26529;51.530;11.754;2023-02-15T09:50:32;101250.16;;;19.67;43.18
40075;BME280;26529;51.530;11.754;2023-02-15T09:56:11;101239.41;;;19.70;43.06
40075;BME280;26529;51.530;11.754;2023-02-15T09:59:01;101231.25;;;19.73;42.90
40075;BME280;26529;51.530;11.754;2023-02-15T10:01:44;101230.28;;;19.74;42.97
40075;BME280;26529;51.530;11.754;2023-02-15T10:07:00;101230.09;;;19.79;43.04
40075;BME280;26529;51.530;11.754;2023-02-15T10:12:40;101240.50;;;19.84;42.97
40075;BME280;26529;51.530;11.754;2023-02-15T10:15:28;101242.03;;;19.88;42.80
40075;BME280;26529;51.530;11.754;2023-02-15T10:18:45;101239.31;;;19.89;42.80
40075;BME280;26529;51.530;11.754;2023-02-15T10:24:36;101244.38;;;19.94;42.52
40075;BME280;26529;51.530;11.754;2023-02-15T10:27:11;101235.47;;;19.95;42.67
40075;BME280;26529;51.530;11.754;2023-02-15T10:29:46;101237.13;;;19.98;42.62
40075;BME280;26529;51.530;11.754;2023-02-15T10:32:23;101234.41;;;19.99;42.67
40075;BME280;26529;51.530;11.754;2023-02-15T10:46:23;101223.19;;;20.10;42.66
40075;BME280;26529;51.530;11.754;2023-02-15T10:49:11;101216.00;;;20.12;42.45
40075;BME280;26529;51.530;11.754;2023-02-15T10:52:13;101207.84;;;20.15;42.60
40075;BME280;26529;51.530;11.754;2023-02-15T10:54:49;101206.88;;;20.16;42.52
40075;BME280;26529;51.530;11.754;2023-02-15T10:57:31;101205.88;;;20.19;42.48
40075;BME280;26529;51.530;11.754;2023-02-15T11:00:09;101214.63;;;20.21;42.62
40075;BME280;26529;51.530;11.754;2023-02-15T11:02:54;101211.00;;;20.22;42.57
40075;BME280;26529;51.530;11.754;2023-02-15T11:08:04;101199.25;;;20.26;42.63
40075;BME280;26529;51.530;11.754;2023-02-15T11:10:42;101194.81;;;20.27;42.70
40075;BME280;26529;51.530;11.754;2023-02-15T11:13:12;101193.78;;;20.29;42.66
40075;BME280;26529;51.530;11.754;2023-02-15T11:15:44;101189.22;;;20.31;42.58
40075;BME280;26529;51.530;11.754;2023-02-15T11:18:21;101189.16;;;20.33;42.64
40075;BME280;26529;51.530;11.754;2023-02-15T11:21:02;101192.59;;;20.35;42.68
40075;BME280;26529;51.530;11.754;2023-02-15T11:23:29;101188.09;;;20.36;42.53
40075;BME280;26529;51.530;11.754;2023-02-15T11:26:02;101176.44;;;20.38;42.52
40075;BME280;26529;51.530;11.754;2023-02-15T11:28:39;101171.91;;;20.40;42.60
40075;BME280;26529;51.530;11.754;2023-02-15T11:31:15;101165.63;;;20.41;42.56
40075;BME280;26529;51.530;11.754;2023-02-15T11:33:46;101162.88;;;20.43;42.57
40075;BME280;26529;51.530;11.754;2023-02-15T11:36:20;101166.31;;;20.45;42.58
40075;BME280;26529;51.530;11.754;2023-02-15T11:38:52;101160.03;;;20.46;42.43
40075;BME280;26529;51.530;11.754;2023-02-15T11:41:25;101150.13;;;20.48;42.49
40075;BME280;26529;51.530;11.754;2023-02-15T11:44:21;101150.06;;;20.50;42.54
40075;BME280;26529;51.530;11.754;2023-02-15T11:46:46;101144.66;;;20.51;42.40
40075;BME280;26529;51.530;11.754;2023-02-15T11:49:24;101148.09;;;20.53;42.53
40075;BME280;26529;51.530;11.754;2023-02-15T11:51:53;101126.78;;;20.53;42.31
40075;BME280;26529;51.530;11.754;2023-02-15T11:54:25;101133.81;;;20.54;42.32
40075;BME280;26529;51.530;11.754;2023-02-15T11:56:51;101123.97;;;20.56;42.27
40075;BME280;26529;51.530;11.754;2023-02-15T11:59:27;101130.88;;;20.59;42.50
40075;BME280;26529;51.530;11.754;2023-02-15T12:01:54;101118.50;;;20.58;42.41
40075;BME280;26529;51.530;11.754;2023-02-15T12:04:34;101117.50;;;20.60;42.37
40075;BME280;26529;51.530;11.754;2023-02-15T12:09:45;101114.31;;;20.70;42.14
40075;BME280;26529;51.530;11.754;2023-02-15T12:12:31;101112.22;;;20.75;42.17
40075;BME280;26529;51.530;11.754;2023-02-15T12:14:58;101112.22;;;20.75;42.13
40075;BME280;26529;51.530;11.754;2023-02-15T12:17:39;101116.44;;;20.79;42.34
40075;BME280;26529;51.530;11.754;2023-02-15T12:22:46;101103.75;;;20.84;42.50
40075;BME280;26529;51.530;11.754;2023-02-15T12:25:36;101103.47;;;20.89;42.35
40075;BME280;26529;51.530;11.754;2023-02-15T12:28:03;101099.44;;;20.98;42.25
40075;BME280;26529;51.530;11.754;2023-02-15T12:30:31;101095.63;;;21.02;42.42
40075;BME280;26529;51.530;11.754;2023-02-15T12:33:17;101096.41;;;21.04;42.66
40075;BME280;26529;51.530;11.754;2023-02-15T12:35:47;101097.53;;;21.00;42.70
40075;BME280;26529;51.530;11.754;2023-02-15T12:40:40;101087.22;;;20.94;42.81
40075;BME280;26529;51.530;11.754;2023-02-15T12:43:25;101098.06;;;20.91;42.89
40075;BME280;26529;51.530;11.754;2023-02-15T12:45:51;101087.50;;;20.89;42.74
40075;BME280;26529;51.530;11.754;2023-02-15T12:48:18;101087.41;;;20.91;42.83
40075;BME280;26529;51.530;11.754;2023-02-15T12:50:49;101088.25;;;20.91;42.69
40075;BME280;26529;51.530;11.754;2023-02-15T12:53:22;101077.59;;;20.91;42.75
40075;BME280;26529;51.530;11.754;2023-02-15T12:56:00;101066.09;;;20.91;42.75
40075;BME280;26529;51.530;11.754;2023-02-15T12:58:27;101069.50;;;20.93;42.72
40075;BME280;26529;51.530;11.754;2023-02-15T13:01:25;101058.84;;;20.93;42.75
40075;BME280;26529;51.530;11.754;2023-02-15T13:03:56;101056.19;;;20.93;42.61
40075;BME280;26529;51.530;11.754;2023-02-15T13:06:23;101056.09;;;20.94;42.68
40075;BME280;26529;51.530;11.754;2023-02-15T13:08:51;101055.16;;;20.95;42.73
40075;BME280;26529;51.530;11.754;2023-02-15T13:11:36;101055.06;;;20.97;42.66
40075;BME280;26529;51.530;11.754;2023-02-15T13:14:19;101051.44;;;20.98;42.55
40075;BME280;26529;51.530;11.754;2023-02-15T13:16:50;101043.44;;;20.98;42.59
40075;BME280;26529;51.530;11.754;2023-02-15T13:19:18;101038.19;;;20.96;42.69
40075;BME280;26529;51.530;11.754;2023-02-15T13:21:46;101033.72;;;20.97;42.61
40075;BME280;26529;51.530;11.754;2023-02-15T13:24:18;101031.91;;;20.97;42.63
40075;BME280;26529;51.530;11.754;2023-02-15T13:26:46;101035.44;;;20.98;42.73
40075;BME280;26529;51.530;11.754;2023-02-15T13:29:24;101032.78;;;20.98;42.69
40075;BME280;26529;51.530;11.754;2023-02-15T13:31:51;101031.91;;;20.97;42.82
40075;BME280;26529;51.530;11.754;2023-02-15T13:34:33;101023.06;;;20.97;42.85
40075;BME280;26529;51.530;11.754;2023-02-15T13:37:10;101018.56;;;20.97;42.82
40075;BME280;26529;51.530;11.754;2023-02-15T13:39:47;101015.91;;;20.97;42.72
40075;BME280;26529;51.530;11.754;2023-02-15T13:42:32;101014.13;;;20.98;42.60
40075;BME280;26529;51.530;11.754;2023-02-15T13:45:31;101019.44;;;20.98;42.84
40075;BME280;26529;51.530;11.754;2023-02-15T13:48:15;101018.50;;;20.99;42.66
40075;BME280;26529;51.530;11.754;2023-02-15T13:51:30;101021.16;;;20.99;42.71
40075;BME280;26529;51.530;11.754;2023-02-15T13:59:40;101024.78;;;20.98;42.69
40075;BME280;26529;51.530;11.754;2023-02-15T14:08:08;101019.44;;;20.98;42.84
40075;BME280;26529;51.530;11.754;2023-02-15T14:10:51;101025.53;;;21.00;42.60
40075;BME280;26529;51.530;11.754;2023-02-15T14:19:28;101004.13;;;21.01;42.58